Time;durP1;ratioP1;P1;durP2;ratioP2;P2;SDS_P1;SDS_P2;PMS_P1;PMS_P2;Temp;Humidity;BMP_temperature;BMP_pressure;BME280_temperature;BME280_humidity;BME280_pressure;Samples;Min_cycle;Max_cycle;Signal;HPM_P1;HPM_P2
2021/06/07 00:01:09;;;;;;;10.57;9.67;;;20.20;99.90;;;;;;5053416;28;20572;-79
2021/06/07 00:03:35;;;;;;;12.83;11.50;;;20.20;99.90;;;;;;5019407;28;20165;-79
2021/06/07 00:06:02;;;;;;;12.07;10.97;;;20.20;99.90;;;;;;5053530;28;20580;-80
2021/06/07 00:08:27;;;;;;;11.13;10.17;;;20.20;99.90;;;;;;5037283;28;20587;-79
2021/06/07 00:10:53;;;;;;;10.90;9.70;;;20.10;99.90;;;;;;5056806;28;20568;-79
2021/06/07 00:13:21;;;;;;;11.77;10.80;;;20.10;99.90;;;;;;5053436;28;20633;-80
2021/06/07 00:15:48;;;;;;;10.23;9.33;;;20.10;99.90;;;;;;5018941;28;20579;-79
2021/06/07 00:18:16;;;;;;;11.50;10.40;;;20.10;99.90;;;;;;5035119;28;21146;-78
2021/06/07 00:20:46;;;;;;;11.83;10.90;;;20.10;99.90;;;;;;5035670;28;20568;-78
2021/06/07 00:23:12;;;;;;;10.90;9.90;;;20.10;99.90;;;;;;5036004;28;20576;-77
2021/06/07 00:25:39;;;;;;;9.43;8.60;;;20.10;99.90;;;;;;5035633;28;20575;-77
2021/06/07 00:28:06;;;;;;;11.50;10.50;;;20.10;99.90;;;;;;5034859;28;20621;-78
2021/06/07 00:30:33;;;;;;;10.17;9.37;;;20.10;99.90;;;;;;5035955;28;20610;-79
2021/06/07 00:32:59;;;;;;;9.37;8.57;;;20.10;99.90;;;;;;5041292;28;20607;-79
2021/06/07 00:35:26;;;;;;;12.53;11.43;;;20.10;99.90;;;;;;5049396;28;20619;-80
2021/06/07 00:37:52;;;;;;;12.80;11.77;;;20.10;99.90;;;;;;5050632;28;20687;-79
2021/06/07 00:40:20;;;;;;;11.43;10.33;;;20.10;99.90;;;;;;5049040;28;20567;-80
2021/06/07 00:42:52;;;;;;;11.60;10.70;;;20.10;99.90;;;;;;5048582;28;20634;-79
2021/06/07 00:45:24;;;;;;;11.60;10.60;;;20.10;99.90;;;;;;5048146;28;20610;-80
2021/06/07 00:47:52;;;;;;;11.67;10.67;;;20.10;99.90;;;;;;5049232;28;20704;-80
2021/06/07 00:50:24;;;;;;;11.47;10.47;;;20.10;99.90;;;;;;5055236;28;20583;-79
2021/06/07 00:53:03;;;;;;;11.60;10.60;;;20.10;99.90;;;;;;5054977;28;20571;-80
2021/06/07 00:55:48;;;;;;;9.70;8.90;;;20.10;99.90;;;;;;5056120;28;20623;-80
2021/06/07 00:58:19;;;;;;;11.83;10.73;;;20.10;99.90;;;;;;5054654;28;21029;-78
2021/06/07 01:00:46;;;;;;;11.20;10.10;;;20.10;99.90;;;;;;5054802;28;20924;-79
2021/06/07 01:03:46;;;;;;;12.20;11.10;;;20.00;99.90;;;;;;5052639;28;20598;-79
2021/06/07 01:06:12;;;;;;;12.17;11.03;;;20.00;99.90;;;;;;5033865;28;20642;-79
2021/06/07 01:08:38;;;;;;;11.87;10.87;;;20.00;99.90;;;;;;5050927;28;20560;-79
2021/06/07 01:11:05;;;;;;;11.20;10.20;;;19.90;99.90;;;;;;5052332;28;20556;-80
2021/06/07 01:13:31;;;;;;;12.00;10.80;;;19.90;99.90;;;;;;5052164;28;20961;-78
2021/06/07 01:15:58;;;;;;;12.00;10.90;;;19.80;99.90;;;;;;5052523;28;20591;-78
2021/06/07 01:18:26;;;;;;;11.73;10.67;;;19.80;99.90;;;;;;5051111;28;20574;-78
2021/06/07 01:20:54;;;;;;;11.73;10.53;;;19.80;99.90;;;;;;5034342;28;20564;-80
2021/06/07 01:23:20;;;;;;;11.87;10.83;;;19.80;99.90;;;;;;5039766;28;21264;-79
2021/06/07 01:25:47;;;;;;;12.43;11.43;;;19.70;99.90;;;;;;5051899;28;20582;-79
2021/06/07 01:28:16;;;;;;;11.93;10.93;;;19.70;99.90;;;;;;5051512;28;20690;-79
2021/06/07 01:30:45;;;;;;;10.10;9.30;;;19.70;99.90;;;;;;5050595;28;20556;-79
2021/06/07 01:33:14;;;;;;;10.87;9.87;;;19.60;99.90;;;;;;5050586;28;20972;-78
2021/06/07 01:35:40;;;;;;;11.33;10.33;;;19.60;99.90;;;;;;5051680;28;20627;-79
2021/06/07 01:38:08;;;;;;;10.70;9.53;;;19.60;99.90;;;;;;5051002;28;20587;-79
2021/06/07 01:40:37;;;;;;;12.23;11.23;;;19.50;99.90;;;;;;5050254;28;20960;-80
2021/06/07 01:43:03;;;;;;;11.70;10.80;;;19.50;99.90;;;;;;5033948;28;20576;-80
2021/06/07 01:45:31;;;;;;;11.73;10.73;;;19.40;99.90;;;;;;5051576;28;20571;-79
2021/06/07 01:47:59;;;;;;;12.23;11.13;;;19.40;99.90;;;;;;5050786;28;21243;-80
2021/06/07 01:50:25;;;;;;;11.40;10.20;;;19.40;99.90;;;;;;5039976;28;21219;-80
2021/06/07 01:52:52;;;;;;;11.20;10.20;;;19.30;99.90;;;;;;5017516;28;20579;-80
2021/06/07 01:55:21;;;;;;;14.20;12.17;;;19.30;99.90;;;;;;5033849;28;20627;-80
2021/06/07 01:57:48;;;;;;;13.13;11.83;;;19.30;99.90;;;;;;5016888;28;20623;-78
2021/06/07 02:00:20;;;;;;;12.30;11.13;;;19.20;99.90;;;;;;5022315;28;20674;-79
2021/06/07 02:02:48;;;;;;;12.00;10.90;;;19.20;99.90;;;;;;5051465;28;20563;-79
2021/06/07 02:05:20;;;;;;;12.13;11.03;;;19.20;99.90;;;;;;5033980;28;20583;-79
2021/06/07 02:07:59;;;;;;;12.80;11.50;;;19.20;99.90;;;;;;5051009;28;20603;-78
2021/06/07 02:10:28;;;;;;;12.10;11.00;;;19.20;99.90;;;;;;5033595;28;20579;-78
2021/06/07 02:12:55;;;;;;;11.67;10.60;;;19.20;99.90;;;;;;5033685;28;20571;-79
2021/06/07 02:15:22;;;;;;;11.83;10.90;;;19.10;99.90;;;;;;5017061;28;20627;-79
2021/06/07 02:17:48;;;;;;;9.97;9.13;;;19.10;99.90;;;;;;5032994;28;20920;-78
2021/06/07 02:21:03;;;;;;;11.80;10.60;;;19.10;99.90;;;;;;5033666;28;20629;-79
2021/06/07 02:23:59;;;;;;;9.90;9.00;;;19.10;99.90;;;;;;4970161;28;20601;-80
2021/06/07 02:26:26;;;;;;;11.30;10.30;;;19.10;99.90;;;;;;4953887;28;20743;-80
2021/06/07 02:29:00;;;;;;;11.77;10.67;;;19.10;99.90;;;;;;5002950;28;20588;-80
2021/06/07 02:31:27;;;;;;;13.30;12.00;;;19.10;99.90;;;;;;5051418;28;20649;-80
2021/06/07 02:33:55;;;;;;;10.70;9.70;;;19.10;99.90;;;;;;5033452;28;20713;-80
2021/06/07 02:36:24;;;;;;;10.57;9.57;;;19.10;99.90;;;;;;5057631;28;20686;-79
2021/06/07 02:38:50;;;;;;;12.23;11.13;;;19.10;99.90;;;;;;5033547;28;20576;-79
2021/06/07 02:41:18;;;;;;;12.27;10.97;;;19.00;99.90;;;;;;5051236;28;20568;-79
2021/06/07 02:43:44;;;;;;;11.87;10.77;;;19.00;99.90;;;;;;5033471;28;20184;-79
2021/06/07 02:46:10;;;;;;;12.03;10.97;;;19.00;99.90;;;;;;5051047;28;20607;-79
2021/06/07 02:48:37;;;;;;;12.77;11.57;;;19.00;99.90;;;;;;5050703;28;20582;-78
2021/06/07 02:51:04;;;;;;;12.77;11.67;;;19.00;99.90;;;;;;5053705;28;20169;-79
2021/06/07 02:53:31;;;;;;;13.80;12.60;;;19.00;99.90;;;;;;5036912;28;20614;-80
2021/06/07 02:55:58;;;;;;;13.27;11.97;;;19.00;99.90;;;;;;5036516;28;20572;-78
2021/06/07 02:58:24;;;;;;;12.27;11.17;;;18.90;99.90;;;;;;5036761;28;20640;-79
2021/06/07 03:00:56;;;;;;;11.03;10.03;;;18.90;99.90;;;;;;5054667;28;20574;-79
2021/06/07 03:03:23;;;;;;;11.90;10.80;;;18.90;99.90;;;;;;5020371;28;20606;-79
2021/06/07 03:05:50;;;;;;;13.57;12.37;;;18.90;99.90;;;;;;5054631;28;20649;-78
2021/06/07 03:08:19;;;;;;;12.97;11.70;;;18.90;99.90;;;;;;5054251;28;20574;-78
2021/06/07 03:10:48;;;;;;;11.17;9.90;;;18.80;99.90;;;;;;5037001;28;20932;-79
2021/06/07 03:13:15;;;;;;;9.47;8.67;;;18.80;99.90;;;;;;5042149;28;20922;-79
2021/06/07 03:15:41;;;;;;;12.97;11.77;;;18.80;99.90;;;;;;5054214;28;20611;-79
2021/06/07 03:18:07;;;;;;;13.43;12.37;;;18.80;99.90;;;;;;5036081;28;20994;-79
2021/06/07 03:20:34;;;;;;;14.03;12.73;;;18.80;99.90;;;;;;5036380;28;20169;-79
2021/06/07 03:23:03;;;;;;;13.27;12.17;;;18.80;99.90;;;;;;5036359;28;20570;-79
2021/06/07 03:25:29;;;;;;;13.37;12.07;;;18.80;99.90;;;;;;5019683;28;20571;-79
2021/06/07 03:27:59;;;;;;;15.53;14.10;;;18.80;99.90;;;;;;5053689;28;21131;-79
2021/06/07 03:30:25;;;;;;;15.27;13.97;;;18.80;99.90;;;;;;5036415;28;20578;-79
2021/06/07 03:32:51;;;;;;;16.13;14.47;;;18.70;99.90;;;;;;5054065;28;20570;-78
2021/06/07 03:35:18;;;;;;;14.93;13.47;;;18.70;99.90;;;;;;5003480;28;20627;-80
2021/06/07 03:37:45;;;;;;;13.60;12.30;;;18.70;99.90;;;;;;5035530;28;20542;-79
2021/06/07 03:40:15;;;;;;;14.00;12.60;;;18.70;99.90;;;;;;5036011;28;20659;-80
2021/06/07 03:42:41;;;;;;;14.63;13.27;;;18.70;99.90;;;;;;5053894;28;20566;-80
2021/06/07 03:45:09;;;;;;;13.67;12.37;;;18.70;99.90;;;;;;5019555;28;20945;-80
2021/06/07 03:47:36;;;;;;;13.83;12.63;;;18.70;99.90;;;;;;5018900;28;20610;-80
2021/06/07 03:50:07;;;;;;;15.37;13.90;;;18.70;99.90;;;;;;5041140;28;20574;-79
2021/06/07 03:52:32;;;;;;;13.83;12.57;;;18.70;99.90;;;;;;5053706;28;20571;-79
2021/06/07 03:54:58;;;;;;;14.07;12.87;;;18.70;99.90;;;;;;5035586;28;20626;-78
2021/06/07 03:57:24;;;;;;;15.20;13.80;;;18.70;99.90;;;;;;5041192;28;20177;-81
2021/06/07 03:59:53;;;;;;;14.33;13.07;;;18.60;99.90;;;;;;5045148;28;20168;-81
2021/06/07 04:02:20;;;;;;;15.47;14.03;;;18.60;99.90;;;;;;5059760;28;20181;-80
2021/06/07 04:04:48;;;;;;;13.87;12.50;;;18.70;99.90;;;;;;5044118;28;20675;-81
2021/06/07 04:07:14;;;;;;;13.00;11.73;;;18.70;99.90;;;;;;5076266;28;20607;-81
2021/06/07 04:09:42;;;;;;;14.00;12.40;;;18.70;99.90;;;;;;5072752;28;20169;-81
2021/06/07 04:12:08;;;;;;;13.47;12.20;;;18.70;99.90;;;;;;5054418;28;20193;-81
2021/06/07 04:14:35;;;;;;;15.77;13.77;;;18.70;99.90;;;;;;5050777;28;20666;-80
2021/06/07 04:17:01;;;;;;;14.80;13.47;;;18.80;99.90;;;;;;5020831;28;21097;-81
2021/06/07 04:19:27;;;;;;;14.90;13.03;;;18.80;99.90;;;;;;5053509;28;20606;-82
2021/06/07 04:21:53;;;;;;;14.33;13.13;;;18.80;99.90;;;;;;5053574;28;20165;-81
2021/06/07 04:24:19;;;;;;;15.67;14.30;;;18.80;99.90;;;;;;5035938;28;20575;-81
2021/06/07 04:26:44;;;;;;;12.07;11.00;;;18.80;99.90;;;;;;5040916;28;20694;-81
2021/06/07 04:29:10;;;;;;;14.07;12.70;;;18.80;99.90;;;;;;5019754;28;21156;-82
2021/06/07 04:31:36;;;;;;;14.60;13.30;;;18.80;99.90;;;;;;5037954;28;20177;-82
2021/06/07 04:34:05;;;;;;;13.87;12.47;;;18.80;99.90;;;;;;5045032;28;20623;-82
2021/06/07 04:36:31;;;;;;;14.63;13.33;;;18.90;99.90;;;;;;5044318;28;20591;-82
2021/06/07 04:38:56;;;;;;;12.93;11.63;;;18.90;99.90;;;;;;5055364;28;20581;-81
2021/06/07 04:41:22;;;;;;;14.77;13.47;;;18.90;99.90;;;;;;5059812;28;20216;-82
2021/06/07 04:43:48;;;;;;;15.10;13.80;;;18.90;99.90;;;;;;5056939;28;20196;-81
2021/06/07 04:46:14;;;;;;;12.77;11.47;;;19.00;99.90;;;;;;5035060;28;20611;-81
2021/06/07 04:48:40;;;;;;;13.90;12.50;;;19.00;99.90;;;;;;5053773;28;20571;-82
2021/06/07 04:51:09;;;;;;;14.70;13.20;;;19.00;99.90;;;;;;5040118;28;20177;-81
2021/06/07 04:53:34;;;;;;;12.17;11.07;;;19.10;99.90;;;;;;5041649;28;20603;-81
2021/06/07 04:56:00;;;;;;;14.47;13.07;;;19.10;99.90;;;;;;5038855;28;20161;-82
2021/06/07 04:58:30;;;;;;;13.27;12.07;;;19.20;99.90;;;;;;5038292;28;20799;-82
2021/06/07 05:00:59;;;;;;;13.50;12.30;;;19.20;99.90;;;;;;5021146;28;20564;-81
2021/06/07 05:03:26;;;;;;;13.83;12.53;;;19.30;99.90;;;;;;5064199;28;20584;-82
2021/06/07 05:05:53;;;;;;;14.43;13.13;;;19.40;99.90;;;;;;5041429;28;20563;-82
2021/06/07 05:08:20;;;;;;;15.13;13.67;;;19.40;99.90;;;;;;5034603;28;20896;-81
2021/06/07 05:10:45;;;;;;;14.20;12.80;;;19.40;99.90;;;;;;5052424;28;20583;-81
2021/06/07 05:13:11;;;;;;;12.27;11.10;;;19.40;99.90;;;;;;5052276;28;20572;-80
2021/06/07 05:15:37;;;;;;;13.27;11.97;;;19.50;99.90;;;;;;5053434;28;20259;-80
2021/06/07 05:18:03;;;;;;;12.90;11.80;;;19.50;99.90;;;;;;5034122;28;20185;-76
2021/06/07 05:20:29;;;;;;;12.90;11.60;;;19.50;99.90;;;;;;5052491;28;20546;-77
2021/06/07 05:22:58;;;;;;;12.90;11.70;;;19.60;99.90;;;;;;5052087;28;21292;-77
2021/06/07 05:25:25;;;;;;;13.50;12.30;;;19.60;99.90;;;;;;5034430;28;20658;-76
2021/06/07 05:27:54;;;;;;;14.60;13.17;;;19.70;99.90;;;;;;5033620;28;20645;-76
2021/06/07 05:30:23;;;;;;;12.77;11.57;;;19.80;99.90;;;;;;5034161;28;20614;-76
2021/06/07 05:32:49;;;;;;;11.47;10.50;;;19.90;99.90;;;;;;5051845;28;20927;-75
2021/06/07 05:35:17;;;;;;;13.57;12.37;;;20.00;99.90;;;;;;5033891;28;20619;-75
2021/06/07 05:37:44;;;;;;;14.10;10.83;;;20.10;99.90;;;;;;5033727;28;20607;-75
2021/06/07 05:40:10;;;;;;;14.73;12.93;;;20.20;99.90;;;;;;5056179;28;20560;-77
2021/06/07 05:42:36;;;;;;;13.07;11.87;;;20.40;99.90;;;;;;5034128;28;20563;-76
2021/06/07 05:45:06;;;;;;;12.40;11.07;;;20.70;99.90;;;;;;5051385;28;20650;-76
2021/06/07 05:47:33;;;;;;;14.30;13.10;;;21.10;99.90;;;;;;5050388;28;20196;-76
2021/06/07 05:49:59;;;;;;;13.70;12.50;;;21.40;99.90;;;;;;5051626;28;20968;-75
2021/06/07 05:52:25;;;;;;;10.17;9.27;;;21.90;99.90;;;;;;5051335;28;20575;-76
2021/06/07 05:54:53;;;;;;;10.57;9.70;;;22.20;99.90;;;;;;5051757;28;20631;-85
2021/06/07 05:57:19;;;;;;;11.00;10.00;;;22.40;99.90;;;;;;5052091;28;20686;-77
2021/06/07 05:59:44;;;;;;;10.90;9.90;;;22.60;99.90;;;;;;5045799;28;20595;-77
2021/06/07 06:02:11;;;;;;;10.30;9.40;;;22.80;99.90;;;;;;5032180;28;20539;-78
2021/06/07 06:04:40;;;;;;;9.67;8.90;;;23.30;99.90;;;;;;5051310;28;20259;-77
2021/06/07 06:07:06;;;;;;;9.27;8.57;;;23.70;99.90;;;;;;5033280;28;21245;-77
2021/06/07 06:09:32;;;;;;;8.17;7.53;;;24.00;99.90;;;;;;5017180;28;20575;-76
2021/06/07 06:11:58;;;;;;;9.13;8.43;;;24.20;99.90;;;;;;5051275;28;20571;-76
2021/06/07 06:14:26;;;;;;;7.87;7.20;;;24.30;99.90;;;;;;5052416;28;20964;-76
2021/06/07 06:16:53;;;;;;;8.77;7.97;;;24.30;99.90;;;;;;5051561;28;20735;-81
2021/06/07 06:19:19;;;;;;;9.60;8.80;;;24.30;99.90;;;;;;5042747;28;20587;-82
2021/06/07 06:21:45;;;;;;;11.60;10.03;;;24.20;99.90;;;;;;5056094;28;21004;-78
2021/06/07 06:24:12;;;;;;;8.93;8.13;;;24.10;99.90;;;;;;5054281;28;20604;-78
2021/06/07 06:26:39;;;;;;;8.23;7.53;;;24.00;99.90;;;;;;5042670;28;20623;-81
2021/06/07 06:29:06;;;;;;;9.83;8.97;;;23.90;99.90;;;;;;5044615;28;20619;-80
2021/06/07 06:31:34;;;;;;;11.17;10.17;;;23.80;99.90;;;;;;5071920;28;20606;-79
2021/06/07 06:34:07;;;;;;;10.00;9.00;;;23.80;99.90;;;;;;5058432;28;20627;-79
2021/06/07 06:36:34;;;;;;;9.07;8.17;;;23.80;99.90;;;;;;5063736;28;20610;-79
2021/06/07 06:39:02;;;;;;;8.00;7.40;;;23.70;99.90;;;;;;5074946;28;20583;-77
2021/06/07 06:41:29;;;;;;;8.30;7.60;;;23.70;99.90;;;;;;5061096;28;20564;-79
2021/06/07 06:43:54;;;;;;;9.70;8.90;;;23.60;99.90;;;;;;5076182;28;20572;-78
2021/06/07 06:46:20;;;;;;;9.60;8.70;;;23.50;99.90;;;;;;5076127;28;20675;-79
2021/06/07 06:48:47;;;;;;;9.97;9.17;;;23.50;99.90;;;;;;5077848;28;20188;-79
2021/06/07 06:51:27;;;;;;;10.17;9.30;;;23.40;99.90;;;;;;5066982;28;20176;-81
2021/06/07 06:53:53;;;;;;;10.13;9.23;;;23.40;99.90;;;;;;5093629;28;20660;-79
2021/06/07 06:56:19;;;;;;;8.27;7.57;;;23.30;99.90;;;;;;5095657;28;20645;-78
2021/06/07 06:58:44;;;;;;;9.77;8.80;;;23.30;99.90;;;;;;5096889;28;20244;-78
2021/06/07 07:01:12;;;;;;;11.10;8.23;;;23.20;99.90;;;;;;5097210;28;20606;-78
2021/06/07 07:03:39;;;;;;;9.70;8.90;;;23.20;99.90;;;;;;5096444;28;20185;-78
2021/06/07 07:06:05;;;;;;;9.80;8.90;;;23.20;99.90;;;;;;5097233;28;20554;-79
2021/06/07 07:08:30;;;;;;;9.67;8.87;;;23.20;99.90;;;;;;5096360;28;20620;-78
2021/06/07 07:10:56;;;;;;;10.00;9.20;;;23.20;99.90;;;;;;5095760;28;20566;-78
2021/06/07 07:13:22;;;;;;;10.70;9.80;;;23.20;99.90;;;;;;5060107;28;20202;-78
2021/06/07 07:15:48;;;;;;;9.00;8.20;;;23.20;99.90;;;;;;5060564;28;20197;-80
2021/06/07 07:18:14;;;;;;;10.17;9.30;;;23.20;99.90;;;;;;5063973;28;20615;-80
2021/06/07 07:20:42;;;;;;;11.10;10.20;;;23.20;99.90;;;;;;5076993;28;20579;-79
2021/06/07 07:23:09;;;;;;;10.20;9.30;;;23.20;99.90;;;;;;5078511;28;20571;-79
2021/06/07 07:25:36;;;;;;;10.33;9.43;;;23.20;99.90;;;;;;5074205;28;20583;-79
2021/06/07 07:28:04;;;;;;;9.87;9.07;;;23.30;99.90;;;;;;5063648;28;20610;-79
2021/06/07 07:30:31;;;;;;;9.53;8.73;;;23.30;99.90;;;;;;5066329;28;20601;-78
2021/06/07 07:32:57;;;;;;;9.47;8.77;;;23.30;99.90;;;;;;5060852;28;20575;-78
2021/06/07 07:35:24;;;;;;;10.53;8.77;;;23.30;99.90;;;;;;5066761;28;20611;-78
2021/06/07 07:37:51;;;;;;;10.40;9.40;;;23.30;99.90;;;;;;5064851;28;20611;-78
2021/06/07 07:40:19;;;;;;;8.67;7.93;;;23.40;99.90;;;;;;5064758;28;20575;-77
2021/06/07 07:42:46;;;;;;;9.23;8.43;;;23.40;99.90;;;;;;5049726;28;20563;-78
2021/06/07 07:45:14;;;;;;;8.57;7.87;;;23.50;99.90;;;;;;5059666;28;20563;-77
2021/06/07 07:47:40;;;;;;;10.10;9.23;;;23.50;99.90;;;;;;5058053;28;20607;-77
2021/06/07 07:50:09;;;;;;;10.30;9.40;;;23.60;99.90;;;;;;5056177;28;20587;-76
2021/06/07 07:52:35;;;;;;;11.40;10.30;;;23.70;99.90;;;;;;5056652;28;20161;-77
2021/06/07 07:55:01;;;;;;;14.73;13.23;;;23.80;99.90;;;;;;5060459;28;20947;-77
2021/06/07 07:57:27;;;;;;;16.43;14.97;;;23.90;99.90;;;;;;5058484;28;20611;-76
2021/06/07 07:59:53;;;;;;;15.93;14.60;;;24.00;99.90;;;;;;5056952;28;20176;-76
2021/06/07 08:02:19;;;;;;;19.50;17.87;;;24.10;99.90;;;;;;5064724;28;20686;-76
2021/06/07 08:04:46;;;;;;;20.83;18.90;;;24.10;99.90;;;;;;5068201;28;20568;-77
2021/06/07 08:07:12;;;;;;;21.43;19.27;;;24.10;99.90;;;;;;5066826;28;20200;-78
2021/06/07 08:09:37;;;;;;;22.00;19.90;;;24.10;99.90;;;;;;5065865;28;20574;-77
2021/06/07 08:12:04;;;;;;;19.07;17.37;;;24.20;99.90;;;;;;5070952;28;20180;-76
2021/06/07 08:14:30;;;;;;;20.80;18.90;;;24.20;99.90;;;;;;5070005;28;20630;-77
2021/06/07 08:16:57;;;;;;;21.00;18.83;;;24.30;99.90;;;;;;5052585;28;20615;-78
2021/06/07 08:19:25;;;;;;;19.63;17.70;;;24.30;99.90;;;;;;5067551;28;20575;-76
2021/06/07 08:21:50;;;;;;;19.60;17.70;;;24.30;99.90;;;;;;5065747;28;20574;-77
2021/06/07 08:24:16;;;;;;;19.90;17.67;;;24.50;99.90;;;;;;5073452;28;20587;-77
2021/06/07 08:26:42;;;;;;;18.60;16.60;;;24.60;99.90;;;;;;5070967;28;20193;-77
2021/06/07 08:29:08;;;;;;;16.10;14.63;;;24.70;99.90;;;;;;5046693;28;20226;-78
2021/06/07 08:31:35;;;;;;;17.83;16.23;;;24.90;99.90;;;;;;5072492;28;20194;-78
2021/06/07 08:34:01;;;;;;;16.43;15.03;;;25.10;99.90;;;;;;5070993;28;20706;-78
2021/06/07 08:36:27;;;;;;;15.73;14.27;;;25.30;99.90;;;;;;5030419;28;20591;-77
2021/06/07 08:38:53;;;;;;;15.10;13.60;;;25.40;99.90;;;;;;5049652;28;20169;-77
2021/06/07 08:41:19;;;;;;;15.20;13.70;;;25.50;99.90;;;;;;5070291;28;20586;-77
2021/06/07 08:43:45;;;;;;;14.83;13.47;;;25.60;99.90;;;;;;5049984;28;20621;-77
2021/06/07 08:46:14;;;;;;;14.10;13.00;;;25.80;99.90;;;;;;5072134;28;20604;-78
2021/06/07 08:48:40;;;;;;;12.20;11.10;;;25.90;99.90;;;;;;5056124;28;20563;-77
2021/06/07 08:51:07;;;;;;;15.63;14.23;;;26.00;99.90;;;;;;5067775;28;20610;-77
2021/06/07 08:53:33;;;;;;;13.27;12.07;;;26.10;99.90;;;;;;5056902;28;20583;-78
2021/06/07 08:55:59;;;;;;;13.50;12.10;;;26.10;99.90;;;;;;5052642;28;20623;-77
2021/06/07 08:58:26;;;;;;;12.60;11.47;;;26.10;99.90;;;;;;5063312;28;20177;-77
2021/06/07 09:00:52;;;;;;;14.93;13.57;;;26.00;99.90;;;;;;5051397;28;20586;-78
2021/06/07 09:03:20;;;;;;;12.90;11.70;;;25.80;99.90;;;;;;5073268;28;20563;-78
2021/06/07 09:05:57;;;;;;;14.50;13.20;;;25.60;99.90;;;;;;5066193;28;20567;-78
2021/06/07 09:08:34;;;;;;;12.70;11.57;;;25.30;99.90;;;;;;5067176;28;20574;-76
2021/06/07 09:11:07;;;;;;;15.87;14.47;;;25.10;99.90;;;;;;5047222;28;20637;-76
2021/06/07 09:13:33;;;;;;;13.30;12.13;;;24.90;99.90;;;;;;5047050;28;20572;-78
2021/06/07 09:16:00;;;;;;;14.43;13.07;;;24.70;99.90;;;;;;5061878;28;21034;-77
2021/06/07 09:18:29;;;;;;;14.80;13.40;;;24.60;99.90;;;;;;5045971;28;20641;-77
2021/06/07 09:21:04;;;;;;;14.70;13.47;;;24.50;99.90;;;;;;5044136;28;20682;-74
2021/06/07 09:23:44;;;;;;;15.00;13.50;;;24.40;99.90;;;;;;5057050;28;20565;-75
2021/06/07 09:26:43;;;;;;;16.00;14.50;;;24.40;99.90;;;;;;5059200;28;20587;-75
2021/06/07 09:29:14;;;;;;;15.97;14.47;;;24.40;99.90;;;;;;5041746;28;20596;-75
2021/06/07 09:31:45;;;;;;;14.97;13.53;;;24.40;99.90;;;;;;5042469;28;20568;-74
2021/06/07 09:34:22;;;;;;;14.20;12.90;;;24.50;99.90;;;;;;5060008;28;20634;-75
2021/06/07 09:36:47;;;;;;;15.47;14.00;;;24.70;99.90;;;;;;5061355;28;20619;-76
2021/06/07 09:39:26;;;;;;;14.77;13.37;;;24.70;99.90;;;;;;5043679;28;21095;-76
2021/06/07 09:42:10;;;;;;;14.33;13.10;;;24.80;99.90;;;;;;5058287;28;20176;-76
2021/06/07 09:44:51;;;;;;;12.57;11.47;;;24.80;99.90;;;;;;5055974;28;20571;-75
2021/06/07 09:47:28;;;;;;;10.23;9.43;;;24.80;99.90;;;;;;5057633;28;20603;-75
2021/06/07 09:49:59;;;;;;;13.10;12.00;;;24.80;99.90;;;;;;5040022;28;20583;-75
2021/06/07 09:52:28;;;;;;;13.07;11.77;;;24.80;99.90;;;;;;5054507;28;20563;-75
2021/06/07 09:55:06;;;;;;;12.30;11.20;;;24.70;99.90;;;;;;5034849;28;20619;-75
2021/06/07 09:57:47;;;;;;;12.77;11.57;;;24.70;99.90;;;;;;5051629;28;20661;-75
2021/06/07 10:00:31;;;;;;;14.10;12.80;;;24.70;99.90;;;;;;5032813;28;20615;-75
2021/06/07 10:03:29;;;;;;;13.27;12.03;;;24.70;99.90;;;;;;5051875;28;20664;-74
2021/06/07 10:06:03;;;;;;;13.43;12.33;;;24.60;99.90;;;;;;5053514;28;20586;-74
2021/06/07 10:08:43;;;;;;;12.13;11.20;;;24.60;99.90;;;;;;5051854;28;20632;-74
2021/06/07 10:11:25;;;;;;;12.17;11.07;;;24.60;99.90;;;;;;5052151;28;20621;-74
2021/06/07 10:14:05;;;;;;;11.67;10.50;;;24.60;99.90;;;;;;5033802;28;21007;-74
2021/06/07 10:16:32;;;;;;;11.27;10.20;;;24.70;99.90;;;;;;5051828;28;20626;-74
2021/06/07 10:18:59;;;;;;;11.03;9.93;;;24.80;99.90;;;;;;5051869;28;20670;-74
2021/06/07 10:21:25;;;;;;;10.50;9.60;;;24.90;99.90;;;;;;5034314;28;20598;-75
2021/06/07 10:23:52;;;;;;;10.33;9.50;;;25.00;99.90;;;;;;5051960;28;20556;-75
2021/06/07 10:26:17;;;;;;;10.70;9.60;;;25.10;99.90;;;;;;5051531;28;20181;-75
2021/06/07 10:28:44;;;;;;;10.67;9.57;;;25.20;99.90;;;;;;5033722;28;20560;-75
2021/06/07 10:31:19;;;;;;;10.50;9.60;;;25.20;99.90;;;;;;5051593;28;20205;-75
2021/06/07 10:34:05;;;;;;;12.27;11.00;;;25.30;99.90;;;;;;5051768;28;20559;-75
2021/06/07 10:36:43;;;;;;;11.53;10.40;;;25.30;99.90;;;;;;5051530;28;20674;-74
2021/06/07 10:39:16;;;;;;;11.80;10.70;;;25.30;99.90;;;;;;5018838;28;20571;-75
2021/06/07 10:42:06;;;;;;;10.40;9.50;;;25.30;99.90;;;;;;5051755;28;20572;-74
2021/06/07 10:44:44;;;;;;;12.57;10.30;;;25.40;99.90;;;;;;5041752;28;20591;-74
2021/06/07 10:47:29;;;;;;;10.87;9.87;;;25.40;99.90;;;;;;5051427;28;20599;-74
2021/06/07 10:50:06;;;;;;;11.43;10.43;;;25.40;99.90;;;;;;5051362;28;20991;-73
2021/06/07 10:52:50;;;;;;;9.80;8.80;;;25.50;99.90;;;;;;5036052;28;20637;-73
2021/06/07 10:55:21;;;;;;;12.53;11.50;;;25.60;99.90;;;;;;5033845;28;20646;-73
2021/06/07 10:57:51;;;;;;;12.90;11.30;;;25.60;99.90;;;;;;5033037;28;20703;-74
2021/06/07 11:00:17;;;;;;;11.93;10.83;;;25.70;99.90;;;;;;5027283;28;20584;-73
2021/06/07 11:02:45;;;;;;;11.03;9.90;;;25.80;99.90;;;;;;5059339;28;20564;-74
2021/06/07 11:05:21;;;;;;;11.93;10.57;;;25.80;99.90;;;;;;5051064;28;20943;-73
2021/06/07 11:07:59;;;;;;;10.50;9.50;;;25.90;99.90;;;;;;5033596;28;20706;-74
2021/06/07 11:10:41;;;;;;;10.60;9.67;;;26.10;99.90;;;;;;5053265;28;20674;-74
2021/06/07 11:13:13;;;;;;;10.30;9.30;;;26.20;99.90;;;;;;5056005;28;20567;-74
2021/06/07 11:15:50;;;;;;;9.30;8.40;;;26.40;99.90;;;;;;5057724;28;20615;-74
2021/06/07 11:18:24;;;;;;;10.10;9.20;;;26.50;99.90;;;;;;5054337;28;20641;-74
2021/06/07 11:21:01;;;;;;;8.30;7.57;;;26.60;99.90;;;;;;5036489;28;20563;-73
2021/06/07 11:23:42;;;;;;;10.60;9.60;;;26.70;99.90;;;;;;5054306;28;20615;-74
2021/06/07 11:26:13;;;;;;;10.40;9.37;;;26.80;99.90;;;;;;5053846;28;20559;-75
2021/06/07 11:28:40;;;;;;;10.43;9.37;;;27.00;99.90;;;;;;5053662;28;20620;-75
2021/06/07 11:31:26;;;;;;;9.27;8.23;;;27.10;99.90;;;;;;5036319;28;20678;-75
2021/06/07 11:34:00;;;;;;;8.07;7.30;;;27.20;99.90;;;;;;5053828;28;20617;-74
2021/06/07 11:36:37;;;;;;;7.37;6.53;;;27.50;99.90;;;;;;5053343;28;20637;-75
2021/06/07 11:39:08;;;;;;;5.97;5.47;;;27.80;99.90;;;;;;5053752;28;20654;-75
2021/06/07 11:41:52;;;;;;;10.40;9.37;;;28.10;99.90;;;;;;5035542;28;20560;-75
2021/06/07 11:44:20;;;;;;;10.47;9.47;;;28.20;99.90;;;;;;5035675;28;20577;-75
2021/06/07 11:46:48;;;;;;;10.20;9.27;;;28.20;99.90;;;;;;5035451;28;20602;-75
2021/06/07 11:49:19;;;;;;;10.50;9.60;;;28.10;99.90;;;;;;5051349;28;20580;-75
2021/06/07 11:52:07;;;;;;;11.13;10.10;;;27.90;99.90;;;;;;5053092;28;20583;-74
2021/06/07 11:54:36;;;;;;;12.33;11.23;;;27.70;99.90;;;;;;5040721;28;20716;-74
2021/06/07 11:57:09;;;;;;;11.00;10.10;;;27.40;99.90;;;;;;5017879;28;20662;-73
2021/06/07 11:59:41;;;;;;;11.10;10.20;;;27.10;99.90;;;;;;5052734;28;20575;-74
2021/06/07 12:02:12;;;;;;;8.53;7.77;;;26.80;99.90;;;;;;5034970;28;20571;-74
2021/06/07 12:04:40;;;;;;;6.90;6.30;;;26.60;99.90;;;;;;5052297;28;20598;-74
2021/06/07 12:07:08;;;;;;;6.10;5.47;;;26.30;99.90;;;;;;5052337;28;20598;-74
2021/06/07 12:09:36;;;;;;;5.37;4.87;;;26.20;99.90;;;;;;5052717;28;20730;-75
2021/06/07 12:12:02;;;;;;;4.33;4.03;;;26.00;99.90;;;;;;5038108;28;20657;-74
2021/06/07 12:14:31;;;;;;;5.30;4.87;;;25.80;99.90;;;;;;5052548;28;20632;-72
2021/06/07 12:17:17;;;;;;;5.30;4.80;;;25.70;99.90;;;;;;5034572;28;20610;-73
2021/06/07 12:19:51;;;;;;;5.23;4.73;;;25.60;99.90;;;;;;5035019;28;20568;-74
2021/06/07 12:22:31;;;;;;;4.50;4.10;;;25.60;99.90;;;;;;5037717;28;20583;-74
2021/06/07 12:25:01;;;;;;;5.30;4.80;;;25.60;99.90;;;;;;5051126;28;20662;-73
2021/06/07 12:30:18;;;;;;;6.60;4.60;;;25.50;99.90;;;;;;5052721;28;20575;-74
2021/06/07 12:32:44;;;;;;;6.50;4.20;;;25.50;99.90;;;;;;5052395;28;20575;-74
2021/06/07 12:35:13;;;;;;;4.87;4.37;;;25.40;99.90;;;;;;5052412;28;21002;-75
2021/06/07 12:37:58;;;;;;;4.80;3.53;;;25.30;99.90;;;;;;5051694;28;20595;-73
2021/06/07 12:40:28;;;;;;;5.37;4.97;;;25.20;99.90;;;;;;5052334;28;20627;-74
2021/06/07 12:42:58;;;;;;;5.33;4.63;;;25.10;99.90;;;;;;5017418;28;20572;-74
2021/06/07 12:45:33;;;;;;;5.63;5.13;;;25.00;99.90;;;;;;5034098;28;20610;-75
2021/06/07 12:48:22;;;;;;;5.00;4.60;;;24.90;99.90;;;;;;5051500;28;20598;-73